createdAt,value
2022-08-13T00:02:27.048Z,20.88
2022-08-13T00:05:41.622Z,19.63
2022-08-13T00:07:54.219Z,20.38
2022-08-13T00:10:26.682Z,20.58
2022-08-13T00:12:58.826Z,18.23
2022-08-13T00:15:34.703Z,21.17
2022-08-13T00:18:08.286Z,22.10
2022-08-13T00:20:40.438Z,19.37
2022-08-13T00:23:21.156Z,19.05
2022-08-13T00:26:00.570Z,18.05
2022-08-13T00:28:34.502Z,18.92
2022-08-13T00:31:08.830Z,17.38
2022-08-13T00:33:47.010Z,19.80
2022-08-13T00:36:29.838Z,22.45
2022-08-13T00:39:09.558Z,21.30
2022-08-13T00:41:59.547Z,20.23
2022-08-13T00:44:33.477Z,20.33
2022-08-13T00:47:23.194Z,21.10
2022-08-13T00:50:00.713Z,18.33
2022-08-13T00:52:34.296Z,23.50
2022-08-13T00:55:12.716Z,19.13
2022-08-13T00:57:42.613Z,24.07
2022-08-13T01:00:18.026Z,17.73
2022-08-13T01:02:55.043Z,19.07
2022-08-13T01:05:41.024Z,21.27
2022-08-13T01:08:14.720Z,15.83
2022-08-13T01:10:55.538Z,16.90
2022-08-13T01:13:32.812Z,15.50
2022-08-13T01:16:04.400Z,16.57
2022-08-13T01:18:42.205Z,15.85
2022-08-13T01:21:18.177Z,16.02
2022-08-13T01:24:02.472Z,18.35
2022-08-13T01:26:37.414Z,18.40
2022-08-13T01:29:13.768Z,14.40
2022-08-13T01:31:47.892Z,15.85
2022-08-13T01:34:22.236Z,16.67
2022-08-13T01:36:57.938Z,18.75
2022-08-13T01:39:36.531Z,14.05
2022-08-13T01:42:33.250Z,13.27
2022-08-13T01:45:07.815Z,14.55
2022-08-13T01:48:04.862Z,17.08
2022-08-13T01:50:39.463Z,15.88
2022-08-13T01:53:11.139Z,14.95
2022-08-13T01:56:15.138Z,14.25
2022-08-13T01:59:01.012Z,14.35
2022-08-13T02:01:42.762Z,13.88
2022-08-13T02:04:22.528Z,17.13
2022-08-13T02:06:54.519Z,18.63
2022-08-13T02:09:58.338Z,14.70
2022-08-13T02:12:35.072Z,13.52
2022-08-13T02:15:08.304Z,14.40
2022-08-13T02:18:01.350Z,15.82
2022-08-13T02:20:35.117Z,16.42
2022-08-13T02:23:09.407Z,18.13
2022-08-13T02:25:40.616Z,16.98
2022-08-13T02:28:27.192Z,17.80
2022-08-13T02:30:59.031Z,17.38
2022-08-13T02:33:29.135Z,19.05
2022-08-13T02:36:00.174Z,16.45
2022-08-13T02:38:35.462Z,16.75
2022-08-13T02:41:25.398Z,17.45
2022-08-13T02:43:58.689Z,17.48
2022-08-13T02:46:29.218Z,17.55
2022-08-13T02:49:00.701Z,17.05
2022-08-13T02:52:06.680Z,21.85
2022-08-13T02:54:25.225Z,15.48
2022-08-13T02:56:56.234Z,14.95
2022-08-13T03:00:01.723Z,17.45
2022-08-13T03:02:20.612Z,16.17
2022-08-13T03:04:50.897Z,17.80
2022-08-13T03:07:21.464Z,16.50
2022-08-13T03:09:51.219Z,17.85
2022-08-13T03:12:31.779Z,16.92
2022-08-13T03:15:14.955Z,18.50
2022-08-13T03:17:46.136Z,20.23
2022-08-13T03:20:26.924Z,18.63
2022-08-13T03:23:09.775Z,18.10
2022-08-13T03:25:40.274Z,19.30
2022-08-13T03:28:13.326Z,17.92
2022-08-13T03:30:55.666Z,18.90
2022-08-13T03:33:25.962Z,19.08
2022-08-13T03:35:57.167Z,19.70
2022-08-13T03:38:26.562Z,21.05
2022-08-13T03:41:14.466Z,19.40
2022-08-13T03:43:53.713Z,22.88
2022-08-13T03:46:27.588Z,19.77
2022-08-13T03:48:57.542Z,20.42
2022-08-13T03:51:35.894Z,18.35
2022-08-13T03:54:07.529Z,22.13
2022-08-13T03:56:42.101Z,20.73
2022-08-13T03:59:28.813Z,21.00
2022-08-13T04:02:19.076Z,20.13
2022-08-13T04:04:54.681Z,21.27
2022-08-13T04:07:32.024Z,19.08
2022-08-13T04:10:13.350Z,19.63
2022-08-13T04:12:42.978Z,23.42
2022-08-13T04:15:13.317Z,22.50
2022-08-13T04:17:46.850Z,22.70
2022-08-13T04:20:16.523Z,20.67
2022-08-13T04:22:48.089Z,22.70
2022-08-13T04:25:27.608Z,20.65
2022-08-13T04:28:09.264Z,21.58
2022-08-13T04:30:41.678Z,23.30
2022-08-13T04:33:21.831Z,20.17
2022-08-13T04:35:53.568Z,19.88
2022-08-13T04:38:28.305Z,22.92
2022-08-13T04:40:58.695Z,22.15
2022-08-13T04:43:28.712Z,22.08
2022-08-13T04:46:01.868Z,20.38
2022-08-13T04:48:34.944Z,18.88
2022-08-13T04:51:10.581Z,20.23
2022-08-13T04:53:50.629Z,19.33
2022-08-13T04:56:23.273Z,19.92
2022-08-13T04:58:52.756Z,20.42
2022-08-13T05:01:48.526Z,18.98
2022-08-13T05:04:24.014Z,20.38
2022-08-13T05:06:53.600Z,19.70
2022-08-13T05:09:31.399Z,17.95
2022-08-13T05:12:05.518Z,18.83
2022-08-13T05:14:38.817Z,25.85
2022-08-13T05:17:13.850Z,22.15
2022-08-13T05:19:50.721Z,19.33
2022-08-13T05:22:29.649Z,22.95
2022-08-13T05:26:09.142Z,22.33
2022-08-13T05:27:49.627Z,22.38
2022-08-13T05:30:29.807Z,22.65
2022-08-13T05:33:10.007Z,21.45
2022-08-13T05:38:10.547Z,22.33
2022-08-13T05:38:54.164Z,21.42
2022-08-13T05:41:26.587Z,22.20
2022-08-13T05:43:59.967Z,24.27
2022-08-13T05:46:30.338Z,24.40
2022-08-13T05:49:00.513Z,23.52
2022-08-13T05:52:35.988Z,23.55
2022-08-13T05:56:12.317Z,24.55
2022-08-13T05:57:14.020Z,24.60
2022-08-13T06:00:00.790Z,24.80
2022-08-13T06:02:49.270Z,24.98
2022-08-13T06:05:46.307Z,25.33
2022-08-13T06:08:42.603Z,28.20
2022-08-13T06:11:12.575Z,27.98
2022-08-13T06:14:05.311Z,27.35
2022-08-13T06:16:53.279Z,27.35
2022-08-13T06:19:27.672Z,26.25
2022-08-13T06:22:04.735Z,26.88
2022-08-13T06:24:52.012Z,28.98
2022-08-13T06:27:54.198Z,26.98
2022-08-13T06:30:13.325Z,25.60
2022-08-13T06:34:06.568Z,24.95
2022-08-13T06:35:59.112Z,24.23
2022-08-13T06:38:34.274Z,27.95
2022-08-13T06:41:06.578Z,29.42
2022-08-13T06:43:47.480Z,29.08
2022-08-13T06:46:27.167Z,25.85
2022-08-13T06:49:02.337Z,26.58
2022-08-13T06:51:34.767Z,25.80
2022-08-13T06:54:20.263Z,24.52
2022-08-13T06:57:12.957Z,28.67
2022-08-13T07:00:10.430Z,24.75
2022-08-13T07:02:45.704Z,25.33
2022-08-13T07:05:20.408Z,26.15
2022-08-13T07:07:57.870Z,26.83
2022-08-13T07:10:36.071Z,27.65
2022-08-13T07:13:41.518Z,26.48
2022-08-13T07:16:00.689Z,30.92
2022-08-13T07:18:31.992Z,26.08
2022-08-13T07:21:14.060Z,28.63
2022-08-13T07:24:48.728Z,28.58
2022-08-13T07:26:40.025Z,26.50
2022-08-13T07:29:17.225Z,29.90
2022-08-13T07:32:00.661Z,24.15
2022-08-13T07:34:41.436Z,24.58
2022-08-13T07:37:24.334Z,22.90
2022-08-13T07:39:54.352Z,23.10
2022-08-13T07:42:31.282Z,24.17
2022-08-13T07:46:27.656Z,23.85
2022-08-13T07:48:26.553Z,23.33
2022-08-13T07:51:02.281Z,23.05
2022-08-13T07:53:55.319Z,23.67
2022-08-13T07:56:33.456Z,23.98
2022-08-13T07:59:06.502Z,24.15
2022-08-13T08:02:23.292Z,26.58
2022-08-13T08:04:50.520Z,25.40
2022-08-13T08:07:24.860Z,25.15
2022-08-13T08:09:59.858Z,27.70
2022-08-13T08:12:47.771Z,25.40
2022-08-13T08:15:26.187Z,26.33
2022-08-13T08:18:25.558Z,27.20
2022-08-13T08:21:47.687Z,25.63
2022-08-13T08:24:02.578Z,25.90
2022-08-13T08:26:36.121Z,27.95
2022-08-13T08:29:12.818Z,27.90
2022-08-13T08:31:59.372Z,28.95
2022-08-13T08:34:33.724Z,27.00
2022-08-13T08:37:03.937Z,26.45
2022-08-13T08:39:51.783Z,26.75
2022-08-13T08:42:58.666Z,26.40
2022-08-13T08:46:09.971Z,26.45
2022-08-13T08:48:26.623Z,25.80
2022-08-13T08:51:01.165Z,26.42
2022-08-13T08:54:06.156Z,28.20
2022-08-13T08:56:22.169Z,29.35
2022-08-13T08:58:58.536Z,26.33
2022-08-13T09:01:28.035Z,32.78
2022-08-13T09:03:58.993Z,27.90
2022-08-13T09:06:53.572Z,26.73
2022-08-13T09:09:23.699Z,25.00
2022-08-13T09:11:59.768Z,22.20
2022-08-13T09:14:32.945Z,23.02
2022-08-13T09:17:12.520Z,20.20
2022-08-13T09:19:48.778Z,18.95
2022-08-13T09:22:28.601Z,17.17
2022-08-13T09:25:00.717Z,17.10
2022-08-13T09:28:01.676Z,19.13
2022-08-13T09:30:33.114Z,17.95
2022-08-13T09:33:05.314Z,17.02
2022-08-13T09:35:36.405Z,19.73
2022-08-13T09:38:12.731Z,16.88
2022-08-13T09:40:56.420Z,16.48
2022-08-13T09:43:49.347Z,16.40
2022-08-13T09:46:28.421Z,16.73
2022-08-13T09:49:00.769Z,16.17
2022-08-13T09:51:55.775Z,15.95
2022-08-13T09:54:28.412Z,16.10
2022-08-13T09:57:01.058Z,16.30
2022-08-13T09:59:36.053Z,16.40
2022-08-13T10:02:16.164Z,13.77
2022-08-13T10:04:47.836Z,15.90
2022-08-13T10:07:20.931Z,14.80
2022-08-13T10:10:30.328Z,13.05
2022-08-13T10:13:03.445Z,14.77
2022-08-13T10:15:33.928Z,14.18
2022-08-13T10:18:10.202Z,12.90
2022-08-13T10:20:44.800Z,12.32
2022-08-13T10:23:16.894Z,11.38
2022-08-13T10:25:54.208Z,12.93
2022-08-13T10:28:32.268Z,13.38
2022-08-13T10:31:50.143Z,11.35
2022-08-13T10:33:57.894Z,13.90
2022-08-13T10:36:33.890Z,13.15
2022-08-13T10:39:05.811Z,12.52
2022-08-13T10:41:59.994Z,14.20
2022-08-13T10:44:32.136Z,16.92
2022-08-13T10:47:02.116Z,14.50
2022-08-13T10:49:37.409Z,14.55
2022-08-13T10:52:08.879Z,13.68
2022-08-13T10:54:38.983Z,13.63
2022-08-13T10:57:13.768Z,14.13
2022-08-13T10:59:46.863Z,13.73
2022-08-13T11:02:19.898Z,13.30
2022-08-13T11:04:52.245Z,15.55
2022-08-13T11:07:25.168Z,13.82
2022-08-13T11:09:54.902Z,13.60
2022-08-13T11:12:26.916Z,14.02
2022-08-13T11:14:57.658Z,15.88
2022-08-13T11:17:51.553Z,13.43
2022-08-13T11:20:23.965Z,15.88
2022-08-13T11:22:57.294Z,17.77
2022-08-13T11:25:55.120Z,15.88
2022-08-13T11:28:23.727Z,15.48
2022-08-13T11:30:58.381Z,13.35
2022-08-13T11:34:05.460Z,16.35
2022-08-13T11:36:17.911Z,15.18
2022-08-13T11:38:47.385Z,15.98
2022-08-13T11:41:19.683Z,14.45
2022-08-13T11:43:58.159Z,13.38
2022-08-13T11:46:30.931Z,15.80
2022-08-13T11:49:10.176Z,14.90
2022-08-13T11:51:52.781Z,13.57
2022-08-13T11:54:30.063Z,13.25
2022-08-13T11:57:01.398Z,14.95
2022-08-13T11:59:35.174Z,13.90
2022-08-13T12:02:16.022Z,13.88
2022-08-13T12:04:55.060Z,14.38
2022-08-13T12:07:27.099Z,14.20
2022-08-13T12:09:58.321Z,16.05
2022-08-13T12:12:31.400Z,13.35
2022-08-13T12:15:03.886Z,12.20
2022-08-13T12:17:51.770Z,14.25
2022-08-13T12:20:28.524Z,14.18
2022-08-13T12:23:01.460Z,14.88
2022-08-13T12:26:04.704Z,15.23
2022-08-13T12:28:27.299Z,16.75
2022-08-13T12:31:01.933Z,16.17
2022-08-13T12:33:40.114Z,14.32
2022-08-13T12:36:13.504Z,17.42
2022-08-13T12:38:59.519Z,15.52
2022-08-13T12:41:38.102Z,15.85
2022-08-13T12:45:04.460Z,16.15
2022-08-13T12:47:06.461Z,16.67
2022-08-13T12:50:00.786Z,15.27
2022-08-13T12:52:33.009Z,16.63
2022-08-13T12:55:13.324Z,17.15
2022-08-13T12:58:04.837Z,15.85
2022-08-13T13:00:37.596Z,16.20
2022-08-13T13:03:12.901Z,17.40
2022-08-13T13:05:44.178Z,14.95
2022-08-13T13:08:30.562Z,19.35
2022-08-13T13:11:12.874Z,15.98
2022-08-13T13:13:54.398Z,17.23
2022-08-13T13:16:35.595Z,19.70
2022-08-13T13:19:15.386Z,16.10
2022-08-13T13:21:49.553Z,18.25
2022-08-13T13:24:23.869Z,17.67
2022-08-13T13:26:59.997Z,19.23
2022-08-13T13:29:37.018Z,17.85
2022-08-13T13:32:38.893Z,16.00
2022-08-13T13:35:03.156Z,17.67
2022-08-13T13:38:05.118Z,21.48
2022-08-13T13:40:38.003Z,19.90
2022-08-13T13:43:23.340Z,18.02
2022-08-13T13:45:54.843Z,22.50
2022-08-13T13:48:33.544Z,22.63
2022-08-13T13:51:08.509Z,21.13
2022-08-13T13:54:09.416Z,19.65
2022-08-13T13:56:30.742Z,20.73
2022-08-13T13:59:00.276Z,17.45
2022-08-13T14:01:43.848Z,21.23
2022-08-13T14:04:14.180Z,19.27
2022-08-13T14:06:46.675Z,18.00
2022-08-13T14:09:20.853Z,16.10
2022-08-13T14:11:53.491Z,17.92
2022-08-13T14:14:26.243Z,18.58
2022-08-13T14:16:57.467Z,16.38
2022-08-13T14:22:18.559Z,16.15
2022-08-13T14:24:50.478Z,17.10
2022-08-13T14:27:23.343Z,19.50
2022-08-13T14:29:55.675Z,16.90
2022-08-13T14:32:28.739Z,17.00
2022-08-13T14:35:04.994Z,15.23
2022-08-13T14:37:37.939Z,20.13
2022-08-13T14:40:19.470Z,16.50
2022-08-13T14:43:17.482Z,17.50
2022-08-13T14:45:58.039Z,15.90
2022-08-13T14:48:33.995Z,23.02
2022-08-13T14:51:19.368Z,27.95
2022-08-13T14:53:56.116Z,23.85
2022-08-13T14:56:28.368Z,21.02
2022-08-13T14:59:02.394Z,20.30
2022-08-13T15:01:33.353Z,23.98
2022-08-13T15:04:08.958Z,24.33
2022-08-13T15:06:40.634Z,23.52
2022-08-13T15:09:14.033Z,22.42
2022-08-13T15:11:49.396Z,20.85
2022-08-13T15:14:25.436Z,17.50
2022-08-13T15:16:56.293Z,18.23
2022-08-13T15:19:27.743Z,15.43
2022-08-13T15:21:57.353Z,16.67
2022-08-13T15:24:40.534Z,15.55
2022-08-13T15:27:34.666Z,18.67
2022-08-13T15:30:10.598Z,16.52
2022-08-13T15:32:53.874Z,16.23
2022-08-13T15:35:36.171Z,16.13
2022-08-13T15:38:16.088Z,14.85
2022-08-13T15:40:52.165Z,14.45
2022-08-13T15:43:36.306Z,14.60
2022-08-13T15:46:17.100Z,14.48
2022-08-13T15:48:51.320Z,15.70
2022-08-13T15:51:29.095Z,13.85
2022-08-13T15:54:01.137Z,11.82
2022-08-13T15:56:34.744Z,16.35
2022-08-13T15:59:05.824Z,13.73
2022-08-13T16:01:40.054Z,12.23
2022-08-13T16:04:16.976Z,23.75
2022-08-13T16:06:49.403Z,14.18
2022-08-13T16:09:49.864Z,12.57
2022-08-13T16:12:16.659Z,11.40
2022-08-13T16:14:50.596Z,12.48
2022-08-13T16:17:22.797Z,12.95
2022-08-13T16:19:55.849Z,11.85
2022-08-13T16:22:29.207Z,12.15
2022-08-13T16:25:01.752Z,14.55
2022-08-13T16:27:49.581Z,9.40
2022-08-13T16:30:29.274Z,11.02
2022-08-13T16:33:07.806Z,12.48
2022-08-13T16:35:50.835Z,11.20
2022-08-13T16:38:22.078Z,12.80
2022-08-13T16:40:58.030Z,13.93
2022-08-13T16:43:57.688Z,11.38
2022-08-13T16:46:34.465Z,11.55
2022-08-13T16:49:10.752Z,11.68
2022-08-13T16:51:44.287Z,10.88
2022-08-13T16:54:36.835Z,10.88
2022-08-13T16:57:04.809Z,13.45
2022-08-13T16:59:42.052Z,11.45
2022-08-13T17:02:11.655Z,11.82
2022-08-13T17:05:10.027Z,11.75
2022-08-13T17:08:09.179Z,11.55
2022-08-13T17:10:38.986Z,11.45
2022-08-13T17:13:08.972Z,13.23
2022-08-13T17:15:42.053Z,10.68
2022-08-13T17:18:13.860Z,11.10
2022-08-13T17:20:45.574Z,11.02
2022-08-13T17:23:23.875Z,12.65
2022-08-13T17:26:08.965Z,14.07
2022-08-13T17:28:43.098Z,14.63
2022-08-13T17:31:15.725Z,12.35
2022-08-13T17:33:54.579Z,15.52
2022-08-13T17:36:32.285Z,15.25
2022-08-13T17:39:22.176Z,13.15
2022-08-13T17:42:01.634Z,13.55
2022-08-13T17:44:42.737Z,15.88
2022-08-13T17:47:57.696Z,14.00
2022-08-13T17:50:05.733Z,15.93
2022-08-13T17:52:38.905Z,14.65
2022-08-13T17:55:10.381Z,14.90
2022-08-13T17:57:47.591Z,12.52
2022-08-13T18:00:22.263Z,15.88
2022-08-13T18:02:56.478Z,13.82
2022-08-13T18:05:46.130Z,16.48
2022-08-13T18:08:17.100Z,15.02
2022-08-13T18:10:54.753Z,14.50
2022-08-13T18:14:01.409Z,15.65
2022-08-13T18:17:05.540Z,19.83
2022-08-13T18:19:09.345Z,15.10
2022-08-13T18:21:46.732Z,15.43
2022-08-13T18:24:18.275Z,13.77
2022-08-13T18:26:57.460Z,15.85
2022-08-13T18:29:57.580Z,16.63
2022-08-13T18:32:20.467Z,17.30
2022-08-13T18:35:03.850Z,16.70
2022-08-13T18:37:45.390Z,17.10
2022-08-13T18:40:18.809Z,15.13
2022-08-13T18:43:08.255Z,17.58
2022-08-13T18:45:56.950Z,15.70
2022-08-13T18:48:33.646Z,16.50
2022-08-13T18:51:19.496Z,17.52
2022-08-13T18:54:00.046Z,17.10
2022-08-13T18:56:29.684Z,18.77
2022-08-13T18:59:02.577Z,20.80
2022-08-13T19:01:32.056Z,15.88
2022-08-13T19:04:03.852Z,15.93
2022-08-13T19:06:38.816Z,21.25
2022-08-13T19:09:10.473Z,17.33
2022-08-13T19:11:45.791Z,18.17
2022-08-13T19:14:19.856Z,18.63
2022-08-13T19:16:56.467Z,17.10
2022-08-13T19:19:55.009Z,15.80
2022-08-13T19:22:20.243Z,19.48
2022-08-13T19:24:51.734Z,14.35
2022-08-13T19:27:54.066Z,17.85
2022-08-13T19:30:13.529Z,15.40
2022-08-13T19:32:49.545Z,16.05
2022-08-13T19:35:21.887Z,16.70
2022-08-13T19:37:57.306Z,17.80
2022-08-13T19:40:35.002Z,20.42
2022-08-13T19:43:08.709Z,14.82
2022-08-13T19:45:50.855Z,16.13
2022-08-13T19:48:42.999Z,19.27
2022-08-13T19:51:20.170Z,16.08
2022-08-13T19:53:59.625Z,15.10
2022-08-13T19:56:34.809Z,20.63
2022-08-13T19:59:06.894Z,16.98
2022-08-13T20:01:51.497Z,15.48
2022-08-13T20:04:34.731Z,21.10
2022-08-13T20:07:09.194Z,15.15
2022-08-13T20:09:52.329Z,15.30
2022-08-13T20:12:25.362Z,24.65
2022-08-13T20:14:57.683Z,21.13
2022-08-13T20:17:40.577Z,18.20
2022-08-13T20:20:23.270Z,18.98
2022-08-13T20:25:50.513Z,17.30
2022-08-13T20:28:34.789Z,18.80
2022-08-13T20:31:07.821Z,17.80
2022-08-13T20:33:43.280Z,16.35
2022-08-13T20:36:14.917Z,18.58
2022-08-13T20:38:49.223Z,15.45
2022-08-13T20:41:21.249Z,15.77
2022-08-13T20:43:58.865Z,21.02
2022-08-13T20:46:31.577Z,18.33
2022-08-13T20:49:01.674Z,24.08
2022-08-13T20:51:33.034Z,15.77
2022-08-13T20:54:08.246Z,17.25
2022-08-13T20:56:53.892Z,18.70
2022-08-13T21:00:41.034Z,17.58
2022-08-13T21:02:30.266Z,20.23
2022-08-13T21:05:01.927Z,16.05
2022-08-13T21:07:34.537Z,18.20
2022-08-13T21:10:34.707Z,22.95
2022-08-13T21:13:04.153Z,18.63
2022-08-13T21:16:08.821Z,19.08
2022-08-13T21:18:31.213Z,18.55
2022-08-13T21:21:02.336Z,17.48
2022-08-13T21:23:40.352Z,21.90
2022-08-13T21:26:18.040Z,18.92
2022-08-13T21:29:32.641Z,17.55
2022-08-13T21:32:10.241Z,19.52
2022-08-13T21:34:35.913Z,18.58
2022-08-13T21:37:11.892Z,21.20
2022-08-13T21:39:41.980Z,20.38
2022-08-13T21:42:13.493Z,19.17
2022-08-13T21:44:51.556Z,17.70
2022-08-13T21:47:21.952Z,21.17
2022-08-13T21:49:57.798Z,17.70
2022-08-13T21:52:33.621Z,17.65
2022-08-13T21:55:06.097Z,20.30
2022-08-13T21:57:41.330Z,21.17
2022-08-13T22:00:28.247Z,21.90
2022-08-13T22:03:12.565Z,20.98
2022-08-13T22:06:00.038Z,21.45
2022-08-13T22:11:26.419Z,20.58
2022-08-13T22:14:04.955Z,23.50
2022-08-13T22:16:43.041Z,21.63
2022-08-13T22:19:16.948Z,22.30
2022-08-13T22:21:46.676Z,22.52
2022-08-13T22:24:17.631Z,22.15
2022-08-13T22:26:47.743Z,22.17
2022-08-13T22:29:36.392Z,24.85
2022-08-13T22:32:11.672Z,25.77
2022-08-13T22:34:49.996Z,23.40
2022-08-13T22:37:27.569Z,28.10
2022-08-13T22:40:12.707Z,24.95
2022-08-13T22:42:46.852Z,23.88
2022-08-13T22:45:18.415Z,27.52
2022-08-13T22:47:49.634Z,22.52
2022-08-13T22:50:21.458Z,27.45
2022-08-13T22:52:52.718Z,29.55
2022-08-13T22:55:24.277Z,26.00
2022-08-13T22:58:17.282Z,27.73
2022-08-13T23:00:55.691Z,30.20
2022-08-13T23:03:29.124Z,31.13
2022-08-13T23:06:03.851Z,31.38
2022-08-13T23:08:34.102Z,31.05
2022-08-13T23:11:05.362Z,38.13
2022-08-13T23:13:47.731Z,29.73
2022-08-13T23:16:20.226Z,36.60
2022-08-13T23:18:58.346Z,30.08
2022-08-13T23:21:29.781Z,29.65
2022-08-13T23:24:01.268Z,26.95
2022-08-13T23:26:31.333Z,24.33
2022-08-13T23:29:04.405Z,27.95
2022-08-13T23:31:42.829Z,29.00
2022-08-13T23:34:16.307Z,30.15
2022-08-13T23:36:54.167Z,32.42
2022-08-13T23:39:26.542Z,37.03
2022-08-13T23:41:57.900Z,37.28
2022-08-13T23:44:39.369Z,29.20
2022-08-13T23:47:16.370Z,33.72
2022-08-13T23:49:49.674Z,29.03
2022-08-13T23:52:20.928Z,35.17
2022-08-13T23:54:52.886Z,28.52
2022-08-13T23:57:27.429Z,32.88
2022-08-13T23:59:59.314Z,32.97
